sensor_id;sensor_type;location;lat;lon;timestamp;temperature;humidity
1534;DHT22;760;48.822;9.304;2022-08-03T04:05:45;17.40;99.90
1534;DHT22;760;48.822;9.304;2022-08-03T04:08:29;17.50;99.90
1534;DHT22;760;48.822;9.304;2022-08-03T04:11:33;17.50;99.90
1534;DHT22;760;48.822;9.304;2022-08-03T04:14:13;17.40;99.90
1534;DHT22;760;48.822;9.304;2022-08-03T04:16:45;17.40;99.90
1534;DHT22;760;48.822;9.304;2022-08-03T04:19:17;17.40;99.90
1534;DHT22;760;48.822;9.304;2022-08-03T04:21:47;17.40;99.90
1534;DHT22;760;48.822;9.304;2022-08-03T04:24:14;17.40;99.90
1534;DHT22;760;48.822;9.304;2022-08-03T04:26:42;17.50;99.90
1534;DHT22;760;48.822;9.304;2022-08-03T04:29:10;17.50;99.90
1534;DHT22;760;48.822;9.304;2022-08-03T04:31:38;17.50;99.90
1534;DHT22;760;48.822;9.304;2022-08-03T04:34:05;17.60;99.90
1534;DHT22;760;48.822;9.304;2022-08-03T04:36:33;17.60;99.90
1534;DHT22;760;48.822;9.304;2022-08-03T04:39:07;17.60;99.90
1534;DHT22;760;48.822;9.304;2022-08-03T04:41:35;17.60;99.90
1534;DHT22;760;48.822;9.304;2022-08-03T04:44:03;17.70;99.90
1534;DHT22;760;48.822;9.304;2022-08-03T04:46:33;18.00;99.90
1534;DHT22;760;48.822;9.304;2022-08-03T04:49:00;18.30;99.90
1534;DHT22;760;48.822;9.304;2022-08-03T04:51:26;18.60;99.90
1534;DHT22;760;48.822;9.304;2022-08-03T04:53:52;18.80;99.90
1534;DHT22;760;48.822;9.304;2022-08-03T04:56:18;19.10;99.90
1534;DHT22;760;48.822;9.304;2022-08-03T04:58:43;19.20;99.90
1534;DHT22;760;48.822;9.304;2022-08-03T05:01:09;19.40;99.90
1534;DHT22;760;48.822;9.304;2022-08-03T05:03:35;19.50;99.90
1534;DHT22;760;48.822;9.304;2022-08-03T05:06:01;19.60;99.90
1534;DHT22;760;48.822;9.304;2022-08-03T05:08:27;19.70;99.90
1534;DHT22;760;48.822;9.304;2022-08-03T05:10:53;19.80;99.90
1534;DHT22;760;48.822;9.304;2022-08-03T05:13:19;19.80;99.90
1534;DHT22;760;48.822;9.304;2022-08-03T05:15:44;19.90;99.90
1534;DHT22;760;48.822;9.304;2022-08-03T05:18:10;20.00;99.90
1534;DHT22;760;48.822;9.304;2022-08-03T05:20:36;20.00;99.90
1534;DHT22;760;48.822;9.304;2022-08-03T05:23:01;20.00;99.90
1534;DHT22;760;48.822;9.304;2022-08-03T05:25:28;20.10;99.90
1534;DHT22;760;48.822;9.304;2022-08-03T05:27:54;20.10;99.90
1534;DHT22;760;48.822;9.304;2022-08-03T05:30:19;20.20;99.90
1534;DHT22;760;48.822;9.304;2022-08-03T05:32:45;20.30;99.90
1534;DHT22;760;48.822;9.304;2022-08-03T05:35:10;20.30;99.90
1534;DHT22;760;48.822;9.304;2022-08-03T05:37:36;20.30;99.90
1534;DHT22;760;48.822;9.304;2022-08-03T05:40:03;20.20;99.90
1534;DHT22;760;48.822;9.304;2022-08-03T05:42:30;20.30;99.90
1534;DHT22;760;48.822;9.304;2022-08-03T05:44:56;20.40;99.90
1534;DHT22;760;48.822;9.304;2022-08-03T05:47:21;20.40;99.90
1534;DHT22;760;48.822;9.304;2022-08-03T05:49:47;20.50;99.90
1534;DHT22;760;48.822;9.304;2022-08-03T05:52:13;20.60;99.90
1534;DHT22;760;48.822;9.304;2022-08-03T05:54:38;20.50;99.90
1534;DHT22;760;48.822;9.304;2022-08-03T05:57:04;20.50;99.90
1534;DHT22;760;48.822;9.304;2022-08-03T05:59:29;20.60;99.90
1534;DHT22;760;48.822;9.304;2022-08-03T06:01:55;20.70;99.90
1534;DHT22;760;48.822;9.304;2022-08-03T06:04:21;20.90;99.90
1534;DHT22;760;48.822;9.304;2022-08-03T06:06:46;21.00;99.90
1534;DHT22;760;48.822;9.304;2022-08-03T06:09:12;21.10;99.90
1534;DHT22;760;48.822;9.304;2022-08-03T06:11:38;21.10;99.90
1534;DHT22;760;48.822;9.304;2022-08-03T06:14:05;21.20;99.90
1534;DHT22;760;48.822;9.304;2022-08-03T06:16:31;21.30;99.90
1534;DHT22;760;48.822;9.304;2022-08-03T06:18:57;21.50;99.90
1534;DHT22;760;48.822;9.304;2022-08-03T06:21:23;21.60;99.90
1534;DHT22;760;48.822;9.304;2022-08-03T06:23:49;21.70;99.90
1534;DHT22;760;48.822;9.304;2022-08-03T06:26:14;21.90;99.90
1534;DHT22;760;48.822;9.304;2022-08-03T06:28:40;21.90;99.90
1534;DHT22;760;48.822;9.304;2022-08-03T06:31:08;22.00;99.90
1534;DHT22;760;48.822;9.304;2022-08-03T06:33:34;22.10;99.90
1534;DHT22;760;48.822;9.304;2022-08-03T06:36:00;22.20;99.90
1534;DHT22;760;48.822;9.304;2022-08-03T06:38:25;22.30;99.90
1534;DHT22;760;48.822;9.304;2022-08-03T06:40:51;22.30;99.90
1534;DHT22;760;48.822;9.304;2022-08-03T06:43:17;22.50;99.90
1534;DHT22;760;48.822;9.304;2022-08-03T06:45:42;22.70;99.90
1534;DHT22;760;48.822;9.304;2022-08-03T06:48:11;22.80;99.90
1534;DHT22;760;48.822;9.304;2022-08-03T06:50:38;23.00;99.90
1534;DHT22;760;48.822;9.304;2022-08-03T06:53:04;23.10;99.90
1534;DHT22;760;48.822;9.304;2022-08-03T06:55:31;23.20;99.90
1534;DHT22;760;48.822;9.304;2022-08-03T06:57:57;23.40;99.90
1534;DHT22;760;48.822;9.304;2022-08-03T07:00:23;23.50;99.90
1534;DHT22;760;48.822;9.304;2022-08-03T07:02:49;23.50;99.90
1534;DHT22;760;48.822;9.304;2022-08-03T07:05:15;23.50;99.90
1534;DHT22;760;48.822;9.304;2022-08-03T07:07:41;23.70;99.90
1534;DHT22;760;48.822;9.304;2022-08-03T07:10:07;23.80;99.90
1534;DHT22;760;48.822;9.304;2022-08-03T07:12:33;23.90;99.90
1534;DHT22;760;48.822;9.304;2022-08-03T07:15:00;24.00;99.90
1534;DHT22;760;48.822;9.304;2022-08-03T07:17:27;24.10;99.90
1534;DHT22;760;48.822;9.304;2022-08-03T07:19:53;24.20;99.90
1534;DHT22;760;48.822;9.304;2022-08-03T07:22:18;24.30;99.90
1534;DHT22;760;48.822;9.304;2022-08-03T07:24:44;24.50;99.90
1534;DHT22;760;48.822;9.304;2022-08-03T07:27:11;24.50;99.90
1534;DHT22;760;48.822;9.304;2022-08-03T07:29:36;24.60;99.90
1534;DHT22;760;48.822;9.304;2022-08-03T07:32:03;24.70;99.90
1534;DHT22;760;48.822;9.304;2022-08-03T07:34:29;24.90;99.80
1534;DHT22;760;48.822;9.304;2022-08-03T07:41:47;25.10;99.80
1534;DHT22;760;48.822;9.304;2022-08-03T07:44:16;25.80;98.90
1534;DHT22;760;48.822;9.304;2022-08-03T07:46:42;26.00;98.20
1534;DHT22;760;48.822;9.304;2022-08-03T07:49:07;26.30;97.80
1534;DHT22;760;48.822;9.304;2022-08-03T07:51:33;26.90;97.00
1534;DHT22;760;48.822;9.304;2022-08-03T07:53:59;27.60;96.10
1534;DHT22;760;48.822;9.304;2022-08-03T07:56:25;28.80;94.00
1534;DHT22;760;48.822;9.304;2022-08-03T07:58:51;30.30;92.60
1534;DHT22;760;48.822;9.304;2022-08-03T08:01:17;31.90;88.70
1534;DHT22;760;48.822;9.304;2022-08-03T08:03:44;33.30;83.70
1534;DHT22;760;48.822;9.304;2022-08-03T08:06:10;34.40;78.10
1534;DHT22;760;48.822;9.304;2022-08-03T08:08:37;35.40;74.40
1534;DHT22;760;48.822;9.304;2022-08-03T08:11:02;36.40;69.90
1534;DHT22;760;48.822;9.304;2022-08-03T08:13:28;37.30;66.80
1534;DHT22;760;48.822;9.304;2022-08-03T08:15:54;38.10;64.40
1534;DHT22;760;48.822;9.304;2022-08-03T08:18:20;38.70;62.30
1534;DHT22;760;48.822;9.304;2022-08-03T08:20:45;39.30;59.40
1534;DHT22;760;48.822;9.304;2022-08-03T08:23:11;39.70;58.50
1534;DHT22;760;48.822;9.304;2022-08-03T08:25:37;40.20;55.50
1534;DHT22;760;48.822;9.304;2022-08-03T08:28:02;40.40;55.30
1534;DHT22;760;48.822;9.304;2022-08-03T08:30:31;40.80;54.30
1534;DHT22;760;48.822;9.304;2022-08-03T08:32:57;41.10;53.10
1534;DHT22;760;48.822;9.304;2022-08-03T08:35:23;41.50;52.70
1534;DHT22;760;48.822;9.304;2022-08-03T08:37:49;41.60;52.00
1534;DHT22;760;48.822;9.304;2022-08-03T08:40:15;41.60;51.90
1534;DHT22;760;48.822;9.304;2022-08-03T08:42:42;42.10;51.00
1534;DHT22;760;48.822;9.304;2022-08-03T08:45:08;42.30;50.30
1534;DHT22;760;48.822;9.304;2022-08-03T08:47:38;41.70;50.00
1534;DHT22;760;48.822;9.304;2022-08-03T08:50:05;41.50;51.30
1534;DHT22;760;48.822;9.304;2022-08-03T08:52:34;41.60;50.80
1534;DHT22;760;48.822;9.304;2022-08-03T08:55:04;41.80;50.00
1534;DHT22;760;48.822;9.304;2022-08-03T08:57:35;42.20;49.40
1534;DHT22;760;48.822;9.304;2022-08-03T09:00:07;42.50;48.60
1534;DHT22;760;48.822;9.304;2022-08-03T09:02:38;42.70;48.70
1534;DHT22;760;48.822;9.304;2022-08-03T09:05:13;43.00;47.90
1534;DHT22;760;48.822;9.304;2022-08-03T09:07:40;43.40;47.40
1534;DHT22;760;48.822;9.304;2022-08-03T09:10:07;43.20;46.90
1534;DHT22;760;48.822;9.304;2022-08-03T09:12:43;43.30;47.00
1534;DHT22;760;48.822;9.304;2022-08-03T09:15:17;43.70;46.10
1534;DHT22;760;48.822;9.304;2022-08-03T09:17:43;44.00;45.50
1534;DHT22;760;48.822;9.304;2022-08-03T09:20:09;44.10;44.90
1534;DHT22;760;48.822;9.304;2022-08-03T09:22:35;43.60;45.00
1534;DHT22;760;48.822;9.304;2022-08-03T09:25:15;43.70;44.80
1534;DHT22;760;48.822;9.304;2022-08-03T09:27:45;44.20;44.40
1534;DHT22;760;48.822;9.304;2022-08-03T09:30:15;44.60;43.00
1534;DHT22;760;48.822;9.304;2022-08-03T09:32:44;44.70;42.40
1534;DHT22;760;48.822;9.304;2022-08-03T09:35:14;44.40;42.40
1534;DHT22;760;48.822;9.304;2022-08-03T09:37:40;44.00;42.60
1534;DHT22;760;48.822;9.304;2022-08-03T09:40:06;44.00;42.90
1534;DHT22;760;48.822;9.304;2022-08-03T09:42:32;43.80;42.80
1534;DHT22;760;48.822;9.304;2022-08-03T09:45:03;43.80;42.80
1534;DHT22;760;48.822;9.304;2022-08-03T09:47:31;43.80;42.60
1534;DHT22;760;48.822;9.304;2022-08-03T09:50:06;43.50;42.70
1534;DHT22;760;48.822;9.304;2022-08-03T09:52:39;43.30;42.80
1534;DHT22;760;48.822;9.304;2022-08-03T09:55:10;43.20;42.90
1534;DHT22;760;48.822;9.304;2022-08-03T09:57:36;43.40;41.90
1534;DHT22;760;48.822;9.304;2022-08-03T10:00:07;43.70;41.40
1534;DHT22;760;48.822;9.304;2022-08-03T10:02:35;44.10;40.90
1534;DHT22;760;48.822;9.304;2022-08-03T10:05:03;43.80;40.50
1534;DHT22;760;48.822;9.304;2022-08-03T10:07:29;43.40;40.30
1534;DHT22;760;48.822;9.304;2022-08-03T10:10:00;43.40;41.10
1534;DHT22;760;48.822;9.304;2022-08-03T10:12:26;43.80;41.20
1534;DHT22;760;48.822;9.304;2022-08-03T10:14:53;44.20;40.90
1534;DHT22;760;48.822;9.304;2022-08-03T10:17:22;43.70;40.80
1534;DHT22;760;48.822;9.304;2022-08-03T10:19:48;43.40;40.80
1534;DHT22;760;48.822;9.304;2022-08-03T10:22:20;43.10;41.20
1534;DHT22;760;48.822;9.304;2022-08-03T10:27:19;43.70;40.60
1534;DHT22;760;48.822;9.304;2022-08-03T10:29:50;43.60;40.50
1534;DHT22;760;48.822;9.304;2022-08-03T10:32:21;43.50;40.20
1534;DHT22;760;48.822;9.304;2022-08-03T10:34:50;43.20;40.50
1534;DHT22;760;48.822;9.304;2022-08-03T10:37:21;42.90;40.50
1534;DHT22;760;48.822;9.304;2022-08-03T10:39:48;42.70;40.80
1534;DHT22;760;48.822;9.304;2022-08-03T10:42:22;42.60;40.90
1534;DHT22;760;48.822;9.304;2022-08-03T10:44:52;42.50;41.20
1534;DHT22;760;48.822;9.304;2022-08-03T10:47:20;42.40;41.20
1534;DHT22;760;48.822;9.304;2022-08-03T10:49:48;42.40;41.50
1534;DHT22;760;48.822;9.304;2022-08-03T10:52:14;42.30;41.30
1534;DHT22;760;48.822;9.304;2022-08-03T10:54:44;42.00;41.10
1534;DHT22;760;48.822;9.304;2022-08-03T10:57:50;41.50;41.60
1534;DHT22;760;48.822;9.304;2022-08-03T11:00:21;41.30;42.60
1534;DHT22;760;48.822;9.304;2022-08-03T11:03:12;40.80;42.70
1534;DHT22;760;48.822;9.304;2022-08-03T11:05:46;40.60;42.80
1534;DHT22;760;48.822;9.304;2022-08-03T11:08:17;40.30;42.90
1534;DHT22;760;48.822;9.304;2022-08-03T11:10:44;40.30;43.10
1534;DHT22;760;48.822;9.304;2022-08-03T11:13:14;40.30;43.10
1534;DHT22;760;48.822;9.304;2022-08-03T11:15:43;40.10;43.20
1534;DHT22;760;48.822;9.304;2022-08-03T11:18:11;39.80;43.40
1534;DHT22;760;48.822;9.304;2022-08-03T11:21:06;39.20;43.80
1534;DHT22;760;48.822;9.304;2022-08-03T11:23:41;38.00;44.70
1534;DHT22;760;48.822;9.304;2022-08-03T11:26:18;36.90;46.00
1534;DHT22;760;48.822;9.304;2022-08-03T11:28:46;35.90;46.80
1534;DHT22;760;48.822;9.304;2022-08-03T11:34:12;34.70;48.80
1534;DHT22;760;48.822;9.304;2022-08-03T11:39:43;34.10;50.00
1534;DHT22;760;48.822;9.304;2022-08-03T11:44:55;33.80;50.40
1534;DHT22;760;48.822;9.304;2022-08-03T11:47:22;33.70;49.90
1534;DHT22;760;48.822;9.304;2022-08-03T11:49:50;33.60;50.60
1534;DHT22;760;48.822;9.304;2022-08-03T11:52:16;33.50;50.50
1534;DHT22;760;48.822;9.304;2022-08-03T11:54:42;33.40;51.10
1534;DHT22;760;48.822;9.304;2022-08-03T11:57:08;33.30;51.20
1534;DHT22;760;48.822;9.304;2022-08-03T11:59:35;33.20;50.90
1534;DHT22;760;48.822;9.304;2022-08-03T12:02:11;33.20;50.60
1534;DHT22;760;48.822;9.304;2022-08-03T12:04:58;33.20;51.10
1534;DHT22;760;48.822;9.304;2022-08-03T12:07:29;33.10;51.10
1534;DHT22;760;48.822;9.304;2022-08-03T12:10:27;33.00;51.00
1534;DHT22;760;48.822;9.304;2022-08-03T12:12:57;33.00;51.20
1534;DHT22;760;48.822;9.304;2022-08-03T12:15:28;33.00;51.30
1534;DHT22;760;48.822;9.304;2022-08-03T12:17:55;33.10;51.00
1534;DHT22;760;48.822;9.304;2022-08-03T12:20:24;33.00;50.70
1534;DHT22;760;48.822;9.304;2022-08-03T12:22:50;32.90;50.90
1534;DHT22;760;48.822;9.304;2022-08-03T12:25:22;32.90;51.20
1534;DHT22;760;48.822;9.304;2022-08-03T12:27:49;32.80;50.90
1534;DHT22;760;48.822;9.304;2022-08-03T12:30:15;32.70;50.80
1534;DHT22;760;48.822;9.304;2022-08-03T12:32:42;32.60;51.10
1534;DHT22;760;48.822;9.304;2022-08-03T12:35:09;32.50;51.30
1534;DHT22;760;48.822;9.304;2022-08-03T12:37:34;32.60;51.60
1534;DHT22;760;48.822;9.304;2022-08-03T12:40:01;32.60;51.40
1534;DHT22;760;48.822;9.304;2022-08-03T12:42:37;32.70;51.50
1534;DHT22;760;48.822;9.304;2022-08-03T12:45:25;32.70;52.10
1534;DHT22;760;48.822;9.304;2022-08-03T12:47:58;32.90;51.90
1534;DHT22;760;48.822;9.304;2022-08-03T12:50:32;33.00;51.30
1534;DHT22;760;48.822;9.304;2022-08-03T12:52:59;33.00;51.70
1534;DHT22;760;48.822;9.304;2022-08-03T12:55:26;33.00;52.20
1534;DHT22;760;48.822;9.304;2022-08-03T12:57:58;33.10;51.30
1534;DHT22;760;48.822;9.304;2022-08-03T13:00:24;33.00;50.90
1534;DHT22;760;48.822;9.304;2022-08-03T13:03:06;33.00;51.10
1534;DHT22;760;48.822;9.304;2022-08-03T13:05:45;32.90;51.60
1534;DHT22;760;48.822;9.304;2022-08-03T13:08:21;32.80;51.10
1534;DHT22;760;48.822;9.304;2022-08-03T13:10:47;32.80;51.90
1534;DHT22;760;48.822;9.304;2022-08-03T13:13:13;32.80;51.90
1534;DHT22;760;48.822;9.304;2022-08-03T13:15:39;32.80;51.80
1534;DHT22;760;48.822;9.304;2022-08-03T13:18:05;32.90;51.50
1534;DHT22;760;48.822;9.304;2022-08-03T13:20:30;32.80;51.30
1534;DHT22;760;48.822;9.304;2022-08-03T13:22:56;32.70;51.20
1534;DHT22;760;48.822;9.304;2022-08-03T13:25:22;32.70;51.20
1534;DHT22;760;48.822;9.304;2022-08-03T13:27:48;32.60;51.10
1534;DHT22;760;48.822;9.304;2022-08-03T13:30:15;32.60;51.20
1534;DHT22;760;48.822;9.304;2022-08-03T13:32:41;32.60;51.10
1534;DHT22;760;48.822;9.304;2022-08-03T13:35:07;32.60;51.00
1534;DHT22;760;48.822;9.304;2022-08-03T13:37:34;32.60;51.10
1534;DHT22;760;48.822;9.304;2022-08-03T13:40:00;32.60;50.90
1534;DHT22;760;48.822;9.304;2022-08-03T13:42:31;32.60;51.00
1534;DHT22;760;48.822;9.304;2022-08-03T13:44:58;32.60;51.10
1534;DHT22;760;48.822;9.304;2022-08-03T13:47:24;32.60;50.90
1534;DHT22;760;48.822;9.304;2022-08-03T13:49:50;32.60;51.10
1534;DHT22;760;48.822;9.304;2022-08-03T13:52:18;32.60;51.10
1534;DHT22;760;48.822;9.304;2022-08-03T13:54:43;32.60;51.50
1534;DHT22;760;48.822;9.304;2022-08-03T13:57:09;32.50;51.30
1534;DHT22;760;48.822;9.304;2022-08-03T13:59:36;32.60;50.70
1534;DHT22;760;48.822;9.304;2022-08-03T14:02:02;32.60;50.40
1534;DHT22;760;48.822;9.304;2022-08-03T14:04:27;32.60;50.10
1534;DHT22;760;48.822;9.304;2022-08-03T14:06:53;32.60;50.40
1534;DHT22;760;48.822;9.304;2022-08-03T14:09:19;32.70;51.10
1534;DHT22;760;48.822;9.304;2022-08-03T14:11:44;32.70;51.20
1534;DHT22;760;48.822;9.304;2022-08-03T14:14:10;32.70;51.30
1534;DHT22;760;48.822;9.304;2022-08-03T14:16:36;32.70;51.40
1534;DHT22;760;48.822;9.304;2022-08-03T14:19:03;32.60;51.40
1534;DHT22;760;48.822;9.304;2022-08-03T14:21:29;32.60;51.90
1534;DHT22;760;48.822;9.304;2022-08-03T14:23:55;32.50;51.50
1534;DHT22;760;48.822;9.304;2022-08-03T14:26:21;32.50;51.50
1534;DHT22;760;48.822;9.304;2022-08-03T14:28:47;32.50;51.70
1534;DHT22;760;48.822;9.304;2022-08-03T14:31:13;32.50;51.80
1534;DHT22;760;48.822;9.304;2022-08-03T14:33:38;32.60;51.50
1534;DHT22;760;48.822;9.304;2022-08-03T14:36:04;32.60;51.20
1534;DHT22;760;48.822;9.304;2022-08-03T14:38:31;32.70;50.70
1534;DHT22;760;48.822;9.304;2022-08-03T14:40:56;32.70;50.90
1534;DHT22;760;48.822;9.304;2022-08-03T14:43:22;32.70;50.60
1534;DHT22;760;48.822;9.304;2022-08-03T14:45:49;32.80;50.70
1534;DHT22;760;48.822;9.304;2022-08-03T14:48:17;32.80;50.60
1534;DHT22;760;48.822;9.304;2022-08-03T14:50:43;32.90;50.20
1534;DHT22;760;48.822;9.304;2022-08-03T14:53:08;32.90;49.90
1534;DHT22;760;48.822;9.304;2022-08-03T14:55:34;32.90;49.80
1534;DHT22;760;48.822;9.304;2022-08-03T14:58:00;32.90;50.10
1534;DHT22;760;48.822;9.304;2022-08-03T15:00:33;32.80;50.10
1534;DHT22;760;48.822;9.304;2022-08-03T15:03:02;32.80;50.20
1534;DHT22;760;48.822;9.304;2022-08-03T15:05:29;32.70;49.90
1534;DHT22;760;48.822;9.304;2022-08-03T15:07:54;32.70;50.00
1534;DHT22;760;48.822;9.304;2022-08-03T15:10:20;32.60;50.20
1534;DHT22;760;48.822;9.304;2022-08-03T15:12:46;32.60;50.30
1534;DHT22;760;48.822;9.304;2022-08-03T15:15:11;32.70;50.20
1534;DHT22;760;48.822;9.304;2022-08-03T15:17:37;32.70;50.70
1534;DHT22;760;48.822;9.304;2022-08-03T15:20:03;32.60;49.80
1534;DHT22;760;48.822;9.304;2022-08-03T15:22:29;32.60;49.80
1534;DHT22;760;48.822;9.304;2022-08-03T15:24:55;32.60;49.20
1534;DHT22;760;48.822;9.304;2022-08-03T15:27:21;32.60;48.90
1534;DHT22;760;48.822;9.304;2022-08-03T15:29:47;32.60;49.10
1534;DHT22;760;48.822;9.304;2022-08-03T15:32:13;32.60;48.70
1534;DHT22;760;48.822;9.304;2022-08-03T15:34:38;32.60;48.90
1534;DHT22;760;48.822;9.304;2022-08-03T15:37:05;32.60;48.50
1534;DHT22;760;48.822;9.304;2022-08-03T15:39:31;32.60;48.10
1534;DHT22;760;48.822;9.304;2022-08-03T15:41:57;32.60;48.50
1534;DHT22;760;48.822;9.304;2022-08-03T15:44:22;32.50;47.50
1534;DHT22;760;48.822;9.304;2022-08-03T15:46:48;32.50;47.60
1534;DHT22;760;48.822;9.304;2022-08-03T15:49:16;32.50;47.80
1534;DHT22;760;48.822;9.304;2022-08-03T15:51:42;32.50;48.00
1534;DHT22;760;48.822;9.304;2022-08-03T15:54:07;32.50;47.70
1534;DHT22;760;48.822;9.304;2022-08-03T15:56:33;32.50;47.80
1534;DHT22;760;48.822;9.304;2022-08-03T15:58:59;32.50;48.10
1534;DHT22;760;48.822;9.304;2022-08-03T16:01:25;32.50;47.80
1534;DHT22;760;48.822;9.304;2022-08-03T16:03:51;32.50;47.40
1534;DHT22;760;48.822;9.304;2022-08-03T16:06:17;32.40;47.40
1534;DHT22;760;48.822;9.304;2022-08-03T16:08:43;32.40;47.60
1534;DHT22;760;48.822;9.304;2022-08-03T16:11:09;32.40;47.80
1534;DHT22;760;48.822;9.304;2022-08-03T16:13:35;32.50;48.20
1534;DHT22;760;48.822;9.304;2022-08-03T16:16:01;32.40;47.00
1534;DHT22;760;48.822;9.304;2022-08-03T16:18:28;32.40;47.00
1534;DHT22;760;48.822;9.304;2022-08-03T16:20:58;32.40;47.10
1534;DHT22;760;48.822;9.304;2022-08-03T16:23:25;32.40;46.80
1534;DHT22;760;48.822;9.304;2022-08-03T16:25:51;32.30;46.40
1534;DHT22;760;48.822;9.304;2022-08-03T16:28:17;32.40;46.80
1534;DHT22;760;48.822;9.304;2022-08-03T16:30:44;32.30;46.90
1534;DHT22;760;48.822;9.304;2022-08-03T16:33:11;32.30;46.30
1534;DHT22;760;48.822;9.304;2022-08-03T16:35:37;32.30;46.10
1534;DHT22;760;48.822;9.304;2022-08-03T16:38:04;32.30;45.60
1534;DHT22;760;48.822;9.304;2022-08-03T16:40:31;32.20;45.70
1534;DHT22;760;48.822;9.304;2022-08-03T16:42:56;32.20;46.20
1534;DHT22;760;48.822;9.304;2022-08-03T16:45:22;32.10;47.20
1534;DHT22;760;48.822;9.304;2022-08-03T16:47:48;32.10;48.00
1534;DHT22;760;48.822;9.304;2022-08-03T16:50:14;32.10;48.20
1534;DHT22;760;48.822;9.304;2022-08-03T16:52:39;32.10;48.30
1534;DHT22;760;48.822;9.304;2022-08-03T16:55:05;32.10;48.20
1534;DHT22;760;48.822;9.304;2022-08-03T16:57:32;32.10;48.20
1534;DHT22;760;48.822;9.304;2022-08-03T16:59:58;32.10;48.30
1534;DHT22;760;48.822;9.304;2022-08-03T17:02:25;32.00;48.30
1534;DHT22;760;48.822;9.304;2022-08-03T17:04:52;32.00;48.30
1534;DHT22;760;48.822;9.304;2022-08-03T17:07:19;32.00;48.60
1534;DHT22;760;48.822;9.304;2022-08-03T17:09:45;32.00;48.40
1534;DHT22;760;48.822;9.304;2022-08-03T17:12:11;31.90;48.90
1534;DHT22;760;48.822;9.304;2022-08-03T17:14:37;31.90;49.30
1534;DHT22;760;48.822;9.304;2022-08-03T17:17:08;31.90;49.50
1534;DHT22;760;48.822;9.304;2022-08-03T17:19:39;31.90;49.40
1534;DHT22;760;48.822;9.304;2022-08-03T17:22:11;31.80;49.40
1534;DHT22;760;48.822;9.304;2022-08-03T17:24:39;31.70;49.20
1534;DHT22;760;48.822;9.304;2022-08-03T17:27:09;31.70;49.30
1534;DHT22;760;48.822;9.304;2022-08-03T17:29:38;31.60;49.40
1534;DHT22;760;48.822;9.304;2022-08-03T17:32:04;31.60;49.40
1534;DHT22;760;48.822;9.304;2022-08-03T17:34:30;31.60;49.50
1534;DHT22;760;48.822;9.304;2022-08-03T17:36:56;31.60;49.80
1534;DHT22;760;48.822;9.304;2022-08-03T17:39:23;31.60;50.10
1534;DHT22;760;48.822;9.304;2022-08-03T17:41:49;31.50;50.20
1534;DHT22;760;48.822;9.304;2022-08-03T17:44:15;31.50;50.50
1534;DHT22;760;48.822;9.304;2022-08-03T17:46:41;31.40;51.10
1534;DHT22;760;48.822;9.304;2022-08-03T17:49:06;31.40;51.60
1534;DHT22;760;48.822;9.304;2022-08-03T17:51:55;31.40;52.20
1534;DHT22;760;48.822;9.304;2022-08-03T17:54:26;31.30;52.80
1534;DHT22;760;48.822;9.304;2022-08-03T18:04:38;31.10;53.80
1534;DHT22;760;48.822;9.304;2022-08-03T18:07:07;31.00;53.90
1534;DHT22;760;48.822;9.304;2022-08-03T18:09:34;30.90;54.00
1534;DHT22;760;48.822;9.304;2022-08-03T18:12:04;30.90;54.30
1534;DHT22;760;48.822;9.304;2022-08-03T18:14:46;30.70;54.40
1534;DHT22;760;48.822;9.304;2022-08-03T18:17:19;30.70;54.90
1534;DHT22;760;48.822;9.304;2022-08-03T18:19:46;30.60;55.20
1534;DHT22;760;48.822;9.304;2022-08-03T18:22:14;30.50;55.40
1534;DHT22;760;48.822;9.304;2022-08-03T18:24:41;30.40;55.60
1534;DHT22;760;48.822;9.304;2022-08-03T18:27:09;30.30;55.90
1534;DHT22;760;48.822;9.304;2022-08-03T18:29:35;30.20;56.10
1534;DHT22;760;48.822;9.304;2022-08-03T18:32:02;30.10;56.30
1534;DHT22;760;48.822;9.304;2022-08-03T18:34:29;30.00;56.70
1534;DHT22;760;48.822;9.304;2022-08-03T18:36:55;29.90;57.00
1534;DHT22;760;48.822;9.304;2022-08-03T18:39:21;29.80;57.30
1534;DHT22;760;48.822;9.304;2022-08-03T18:41:47;29.70;57.50
1534;DHT22;760;48.822;9.304;2022-08-03T18:44:13;29.60;58.10
1534;DHT22;760;48.822;9.304;2022-08-03T18:52:13;29.30;58.30
1534;DHT22;760;48.822;9.304;2022-08-03T19:00:44;28.90;58.90
1534;DHT22;760;48.822;9.304;2022-08-03T19:03:13;28.80;59.10
1534;DHT22;760;48.822;9.304;2022-08-03T19:06:01;28.70;59.30
1534;DHT22;760;48.822;9.304;2022-08-03T19:08:47;28.60;59.30
1534;DHT22;760;48.822;9.304;2022-08-03T19:11:23;28.50;59.50
1534;DHT22;760;48.822;9.304;2022-08-03T19:13:50;28.40;59.60
1534;DHT22;760;48.822;9.304;2022-08-03T19:16:29;28.30;59.80
1534;DHT22;760;48.822;9.304;2022-08-03T19:18:58;28.30;60.30
1534;DHT22;760;48.822;9.304;2022-08-03T19:21:27;28.30;60.90
1534;DHT22;760;48.822;9.304;2022-08-03T19:23:54;28.20;61.40
1534;DHT22;760;48.822;9.304;2022-08-03T19:26:21;28.20;62.10
1534;DHT22;760;48.822;9.304;2022-08-03T19:28:49;28.10;62.80
1534;DHT22;760;48.822;9.304;2022-08-03T19:31:19;28.00;63.00
1534;DHT22;760;48.822;9.304;2022-08-03T19:33:46;27.90;63.10
1534;DHT22;760;48.822;9.304;2022-08-03T19:36:13;27.90;63.00
1534;DHT22;760;48.822;9.304;2022-08-03T19:38:40;27.80;63.10
1534;DHT22;760;48.822;9.304;2022-08-03T19:41:09;27.70;63.50
1534;DHT22;760;48.822;9.304;2022-08-03T19:43:51;27.60;63.70
1534;DHT22;760;48.822;9.304;2022-08-03T19:46:19;27.50;63.70
1534;DHT22;760;48.822;9.304;2022-08-03T19:49:04;27.50;63.10
1534;DHT22;760;48.822;9.304;2022-08-03T19:51:33;27.50;63.60
1534;DHT22;760;48.822;9.304;2022-08-03T19:54:03;27.40;63.60
1534;DHT22;760;48.822;9.304;2022-08-03T19:56:31;27.30;63.60
1534;DHT22;760;48.822;9.304;2022-08-03T19:58:58;27.30;64.80
1534;DHT22;760;48.822;9.304;2022-08-03T20:01:26;27.20;64.20
1534;DHT22;760;48.822;9.304;2022-08-03T20:03:52;27.10;64.50
1534;DHT22;760;48.822;9.304;2022-08-03T20:06:22;27.00;64.60
1534;DHT22;760;48.822;9.304;2022-08-03T20:08:48;26.90;64.40
1534;DHT22;760;48.822;9.304;2022-08-03T20:11:15;26.90;64.20
1534;DHT22;760;48.822;9.304;2022-08-03T20:13:44;26.90;64.10
1534;DHT22;760;48.822;9.304;2022-08-03T20:16:19;26.80;64.10
1534;DHT22;760;48.822;9.304;2022-08-03T20:18:48;26.80;64.30
1534;DHT22;760;48.822;9.304;2022-08-03T20:21:15;26.70;64.70
1534;DHT22;760;48.822;9.304;2022-08-03T20:23:43;26.70;65.50
1534;DHT22;760;48.822;9.304;2022-08-03T20:26:14;26.60;66.40
1534;DHT22;760;48.822;9.304;2022-08-03T20:28:49;26.50;68.00
1534;DHT22;760;48.822;9.304;2022-08-03T20:31:16;26.40;68.00
1534;DHT22;760;48.822;9.304;2022-08-03T20:33:42;26.30;68.10
1534;DHT22;760;48.822;9.304;2022-08-03T20:36:08;26.30;68.70
1534;DHT22;760;48.822;9.304;2022-08-03T20:38:34;26.20;69.10
1534;DHT22;760;48.822;9.304;2022-08-03T20:41:03;26.10;69.70
1534;DHT22;760;48.822;9.304;2022-08-03T20:43:28;26.10;70.20
1534;DHT22;760;48.822;9.304;2022-08-03T20:45:54;25.90;70.60
1534;DHT22;760;48.822;9.304;2022-08-03T20:48:21;25.90;71.30
1534;DHT22;760;48.822;9.304;2022-08-03T20:50:47;25.80;71.90
1534;DHT22;760;48.822;9.304;2022-08-03T20:53:13;25.60;72.30
1534;DHT22;760;48.822;9.304;2022-08-03T20:55:39;25.50;72.20
1534;DHT22;760;48.822;9.304;2022-08-03T20:58:07;25.50;72.60
1534;DHT22;760;48.822;9.304;2022-08-03T21:00:33;25.40;72.80
1534;DHT22;760;48.822;9.304;2022-08-03T21:02:59;25.30;72.90